createdAt,value
2018-02-12T00:00:07.272Z,0.20
2018-02-12T00:02:34.717Z,0.30
2018-02-12T00:05:02.207Z,0.50
2018-02-12T00:07:29.680Z,0.40
2018-02-12T00:09:57.174Z,0.50
2018-02-12T00:12:25.393Z,0.30
2018-02-12T00:14:52.921Z,0.30
2018-02-12T00:17:20.382Z,0.00
2018-02-12T00:19:47.907Z,0.00
2018-02-12T00:22:15.378Z,-0.10
2018-02-12T00:24:43.589Z,0.10
2018-02-12T00:27:11.084Z,0.10
2018-02-12T00:29:38.566Z,-0.10
2018-02-12T00:32:06.846Z,-0.10
2018-02-12T00:34:35.090Z,-0.20
2018-02-12T00:37:02.599Z,-0.20
2018-02-12T00:39:30.066Z,-0.10
2018-02-12T00:41:57.573Z,-0.10
2018-02-12T00:44:25.045Z,-0.10
2018-02-12T00:46:53.335Z,-0.10
2018-02-12T00:49:21.573Z,0.00
2018-02-12T00:51:49.074Z,0.00
2018-02-12T00:54:16.545Z,0.20
2018-02-12T00:56:44.040Z,0.20
2018-02-12T00:59:11.493Z,0.30
2018-02-12T01:01:38.978Z,0.30
2018-02-12T01:04:07.246Z,0.30
2018-02-12T01:06:34.745Z,0.30
2018-02-12T01:09:02.962Z,0.30
2018-02-12T01:11:30.471Z,0.30
2018-02-12T01:13:58.711Z,0.40
2018-02-12T01:16:26.168Z,0.40
2018-02-12T01:18:53.645Z,0.40
2018-02-12T01:21:21.127Z,0.40
2018-02-12T01:23:49.365Z,0.30
2018-02-12T01:26:16.838Z,0.30
2018-02-12T01:28:44.329Z,0.20
2018-02-12T01:31:11.801Z,0.20
2018-02-12T01:33:39.270Z,0.20
2018-02-12T01:36:06.744Z,0.30
2018-02-12T01:38:34.230Z,0.30
2018-02-12T01:41:01.722Z,0.20
2018-02-12T01:43:29.201Z,0.20
2018-02-12T01:45:56.698Z,0.30
2018-02-12T01:48:24.157Z,0.30
2018-02-12T01:50:51.670Z,0.30
2018-02-12T01:53:19.114Z,0.30
2018-02-12T01:55:46.618Z,0.30
2018-02-12T01:58:14.095Z,0.30
2018-02-12T02:00:41.621Z,0.30
2018-02-12T02:03:09.070Z,0.30
2018-02-12T02:05:36.529Z,0.40
2018-02-12T02:08:04.017Z,0.40
2018-02-12T02:10:31.473Z,0.40
2018-02-12T02:12:58.960Z,0.40
2018-02-12T02:15:27.191Z,0.40
2018-02-12T02:17:54.685Z,0.40
2018-02-12T02:20:22.159Z,0.40
2018-02-12T02:22:50.390Z,0.40
2018-02-12T02:25:17.862Z,0.40
2018-02-12T02:27:46.861Z,0.30
2018-02-12T02:30:14.356Z,0.30
2018-02-12T02:32:42.574Z,0.30
2018-02-12T02:35:10.098Z,0.30
2018-02-12T02:37:37.554Z,0.40
2018-02-12T02:40:05.062Z,0.30
2018-02-12T02:42:32.541Z,0.30
2018-02-12T02:45:00.038Z,0.20
2018-02-12T02:47:27.511Z,0.20
2018-02-12T02:49:54.972Z,0.20
2018-02-12T02:52:22.454Z,0.20
2018-02-12T02:54:49.918Z,0.30
2018-02-12T02:57:17.417Z,0.20
2018-02-12T02:59:44.906Z,0.20
2018-02-12T03:02:12.390Z,0.20
2018-02-12T03:04:39.853Z,0.10
2018-02-12T03:07:07.382Z,0.10
2018-02-12T03:09:34.881Z,0.10
2018-02-12T03:12:02.337Z,0.10
2018-02-12T03:14:30.598Z,0.10
2018-02-12T03:16:58.050Z,0.10
2018-02-12T03:19:25.572Z,0.10
2018-02-12T03:21:53.044Z,0.20
2018-02-12T03:24:20.532Z,0.20
2018-02-12T03:26:48.006Z,0.20
2018-02-12T03:29:15.501Z,0.20
2018-02-12T03:31:42.953Z,0.20
2018-02-12T03:34:10.478Z,0.10
2018-02-12T03:36:38.973Z,0.20
2018-02-12T03:39:07.190Z,0.10
2018-02-12T03:41:34.691Z,0.10
2018-02-12T03:44:02.169Z,0.10
2018-02-12T03:46:30.434Z,0.10
2018-02-12T03:48:58.665Z,0.00
2018-02-12T03:51:26.156Z,0.00
2018-02-12T03:53:53.638Z,0.00
2018-02-12T03:56:21.886Z,0.00
2018-02-12T03:58:49.358Z,-0.10
2018-02-12T04:01:16.854Z,-0.10
2018-02-12T04:03:44.354Z,-0.10
2018-02-12T04:06:11.830Z,-0.10
2018-02-12T04:08:40.119Z,-0.10
2018-02-12T04:11:07.601Z,-0.10
2018-02-12T04:13:35.879Z,-0.10
2018-02-12T04:16:04.106Z,-0.20
2018-02-12T04:18:31.572Z,-0.20
2018-02-12T04:20:59.065Z,-0.20
2018-02-12T04:23:27.320Z,-0.20
2018-02-12T04:25:54.818Z,-0.20
2018-02-12T04:28:22.315Z,-0.30
2018-02-12T04:30:49.774Z,-0.30
2018-02-12T04:33:17.259Z,-0.30
2018-02-12T04:35:44.750Z,-0.30
2018-02-12T04:38:12.230Z,-0.30
2018-02-12T04:40:39.701Z,-0.30
2018-02-12T04:43:07.193Z,-0.30
2018-02-12T04:45:35.440Z,-0.30
2018-02-12T04:48:02.949Z,-0.30
2018-02-12T04:50:31.181Z,-0.20
2018-02-12T04:52:58.633Z,-0.20
2018-02-12T04:55:26.122Z,-0.20
2018-02-12T04:57:53.641Z,-0.20
2018-02-12T05:00:21.168Z,-0.30
2018-02-12T05:02:49.382Z,-0.30
2018-02-12T05:05:16.837Z,-0.30
2018-02-12T05:07:44.327Z,-0.30
2018-02-12T05:10:11.841Z,-0.30
2018-02-12T05:12:39.297Z,-0.30
2018-02-12T05:15:06.794Z,-0.30
2018-02-12T05:17:34.291Z,-0.30
2018-02-12T05:20:01.771Z,-0.40
2018-02-12T05:22:29.270Z,-0.40
2018-02-12T05:24:56.750Z,-0.40
2018-02-12T05:27:25.030Z,-0.40
2018-02-12T05:29:53.288Z,-0.40
2018-02-12T05:32:20.791Z,-0.40
2018-02-12T05:34:48.246Z,-0.50
2018-02-12T05:37:15.873Z,-0.50
2018-02-12T05:39:43.373Z,-0.50
2018-02-12T05:42:10.841Z,-0.50
2018-02-12T05:44:38.350Z,-0.50
2018-02-12T05:47:05.818Z,-0.50
2018-02-12T05:49:34.074Z,-0.50
2018-02-12T05:52:01.562Z,-0.50
2018-02-12T05:54:29.829Z,-0.60
2018-02-12T05:56:57.290Z,-0.60
2018-02-12T05:59:25.540Z,-0.60
2018-02-12T06:01:53.022Z,-0.60
2018-02-12T06:04:21.265Z,-0.60
2018-02-12T06:06:48.747Z,-0.60
2018-02-12T06:09:16.970Z,-0.60
2018-02-12T06:11:44.470Z,-0.60
2018-02-12T06:14:11.928Z,-0.60
2018-02-12T06:16:39.423Z,-0.60
2018-02-12T06:19:06.885Z,-0.60
2018-02-12T06:21:34.379Z,-0.60
2018-02-12T06:24:01.871Z,-0.60
2018-02-12T06:26:29.330Z,-0.60
2018-02-12T06:28:56.852Z,-0.60
2018-02-12T06:31:24.306Z,-0.50
2018-02-12T06:33:51.810Z,-0.50
2018-02-12T06:36:19.278Z,-0.50
2018-02-12T06:38:47.543Z,-0.40
2018-02-12T06:41:15.022Z,-0.40
2018-02-12T06:43:43.286Z,-0.50
2018-02-12T06:46:11.529Z,-0.50
2018-02-12T06:48:38.999Z,-0.50
2018-02-12T06:51:06.510Z,-0.50
2018-02-12T06:53:33.997Z,-0.50
2018-02-12T06:56:01.522Z,-0.50
2018-02-12T06:58:28.979Z,-0.50
2018-02-12T07:00:56.500Z,-0.50
2018-02-12T07:03:23.962Z,-0.50
2018-02-12T07:05:51.489Z,-0.50
2018-02-12T07:08:18.978Z,-0.50
2018-02-12T07:10:46.453Z,-0.40
2018-02-12T07:13:14.722Z,-0.40
2018-02-12T07:15:42.194Z,-0.50
2018-02-12T07:18:10.419Z,-0.40
2018-02-12T07:20:37.905Z,-0.40
2018-02-12T07:23:06.202Z,-0.40
2018-02-12T07:25:34.464Z,-0.40
2018-02-12T07:28:01.959Z,-0.40
2018-02-12T07:30:29.446Z,-0.40
2018-02-12T07:32:56.931Z,-0.40
2018-02-12T07:35:24.426Z,-0.40
2018-02-12T07:37:51.907Z,-0.50
2018-02-12T07:40:19.390Z,-0.40
2018-02-12T07:42:46.910Z,-0.40
2018-02-12T07:45:14.369Z,-0.40
2018-02-12T07:47:41.878Z,-0.40
2018-02-12T07:50:09.362Z,-0.40
2018-02-12T07:52:37.638Z,-0.40
2018-02-12T07:55:05.929Z,-0.40
2018-02-12T07:57:33.389Z,-0.40
2018-02-12T08:00:00.902Z,-0.40
2018-02-12T08:02:28.406Z,-0.40
2018-02-12T08:04:55.876Z,-0.40
2018-02-12T08:07:23.445Z,-0.30
2018-02-12T08:09:50.947Z,-0.30
2018-02-12T08:12:18.421Z,-0.30
2018-02-12T08:14:46.708Z,-0.30
2018-02-12T08:17:14.958Z,-0.30
2018-02-12T08:19:42.433Z,-0.30
2018-02-12T08:22:10.727Z,-0.10
2018-02-12T08:24:38.957Z,-0.20
2018-02-12T08:27:06.612Z,-0.20
2018-02-12T08:29:34.079Z,-0.20
2018-02-12T08:32:01.599Z,-0.20
2018-02-12T08:34:29.080Z,-0.20
2018-02-12T08:36:56.546Z,-0.10
2018-02-12T08:39:24.051Z,-0.20
2018-02-12T08:41:52.267Z,-0.20
2018-02-12T08:44:19.790Z,-0.20
2018-02-12T08:46:48.031Z,-0.30
2018-02-12T08:49:15.559Z,-0.30
2018-02-12T08:51:43.876Z,-0.20
2018-02-12T08:54:11.374Z,-0.10
2018-02-12T08:56:38.878Z,-0.10
2018-02-12T08:59:06.385Z,-0.10
2018-02-12T09:01:33.878Z,0.00
2018-02-12T09:04:01.397Z,0.00
2018-02-12T09:06:29.634Z,-0.10
2018-02-12T09:08:57.156Z,-0.10
2018-02-12T09:11:24.644Z,0.00
2018-02-12T09:13:52.166Z,-0.10
2018-02-12T09:16:19.682Z,0.00
2018-02-12T09:18:47.222Z,-0.10
2018-02-12T09:21:14.674Z,-0.10
2018-02-12T09:23:42.155Z,-0.10
2018-02-12T09:26:09.629Z,-0.10
2018-02-12T09:28:37.139Z,0.00
2018-02-12T09:31:04.622Z,0.00
2018-02-12T09:33:32.116Z,0.00
2018-02-12T09:36:00.370Z,0.20
2018-02-12T09:38:27.879Z,0.10
2018-02-12T09:40:55.363Z,0.20
2018-02-12T09:43:22.885Z,0.30
2018-02-12T09:45:50.393Z,0.30
2018-02-12T09:48:17.925Z,0.30
2018-02-12T09:50:45.418Z,0.30
2018-02-12T09:53:12.898Z,0.30
2018-02-12T09:55:41.125Z,0.20
2018-02-12T09:58:08.614Z,0.20
2018-02-12T10:00:36.101Z,0.40
2018-02-12T10:03:04.358Z,-0.50
2018-02-12T10:05:31.862Z,-0.50
2018-02-12T10:07:59.338Z,-0.70
2018-02-12T10:10:26.818Z,-0.80
2018-02-12T10:12:54.286Z,-0.90
2018-02-12T10:15:21.776Z,-0.90
2018-02-12T10:17:50.036Z,-0.50
2018-02-12T10:20:17.534Z,-0.60
2018-02-12T10:22:44.997Z,-0.30
2018-02-12T10:25:12.510Z,-0.10
2018-02-12T10:27:41.505Z,-0.10
2018-02-12T10:30:09.059Z,-0.10
2018-02-12T10:32:36.541Z,0.00
2018-02-12T10:35:04.782Z,0.00
2018-02-12T10:37:32.300Z,0.00
2018-02-12T10:40:00.519Z,0.40
2018-02-12T10:42:28.011Z,0.40
2018-02-12T10:44:56.258Z,0.30
2018-02-12T10:47:23.764Z,0.30
2018-02-12T10:49:51.235Z,0.40
2018-02-12T10:52:18.709Z,0.30
2018-02-12T10:54:46.179Z,0.30
2018-02-12T10:57:13.658Z,0.30
2018-02-12T10:59:41.143Z,0.30
2018-02-12T11:02:08.593Z,0.20
2018-02-12T11:04:36.111Z,0.30
2018-02-12T11:07:03.567Z,0.30
2018-02-12T11:09:31.078Z,0.20
2018-02-12T11:11:58.550Z,0.10
2018-02-12T11:14:26.034Z,0.00
2018-02-12T11:16:53.522Z,0.00
2018-02-12T11:19:21.815Z,0.20
2018-02-12T11:21:50.060Z,0.40
2018-02-12T11:24:17.527Z,0.40
2018-02-12T11:26:44.999Z,0.60
2018-02-12T11:29:13.261Z,0.50
2018-02-12T11:31:40.770Z,0.50
2018-02-12T11:34:08.305Z,0.50
2018-02-12T11:36:36.562Z,0.60
2018-02-12T11:39:04.842Z,0.60
2018-02-12T11:41:32.354Z,0.60
2018-02-12T11:43:59.815Z,0.60
2018-02-12T11:46:27.319Z,0.60
2018-02-12T11:48:54.788Z,0.70
2018-02-12T11:51:23.004Z,0.80
2018-02-12T11:53:50.510Z,0.70
2018-02-12T11:56:19.492Z,0.70
2018-02-12T11:58:47.004Z,0.70
2018-02-12T12:01:14.487Z,0.60
2018-02-12T12:03:41.983Z,0.60
2018-02-12T12:06:09.538Z,0.60
2018-02-12T12:08:37.051Z,0.30
2018-02-12T12:11:04.527Z,0.20
2018-02-12T12:13:32.047Z,0.30
2018-02-12T12:16:00.261Z,0.40
2018-02-12T12:18:27.757Z,0.40
2018-02-12T12:20:55.233Z,0.30
2018-02-12T12:23:22.750Z,0.20
2018-02-12T12:25:50.241Z,0.20
2018-02-12T12:28:18.490Z,0.60
2018-02-12T12:30:45.974Z,0.60
2018-02-12T12:33:14.206Z,0.60
2018-02-12T12:35:41.721Z,0.60
2018-02-12T12:38:10.019Z,0.70
2018-02-12T12:40:37.508Z,0.60
2018-02-12T12:43:05.035Z,0.90
2018-02-12T12:45:32.486Z,1.00
2018-02-12T12:47:59.994Z,1.10
2018-02-12T12:50:27.488Z,1.10
2018-02-12T12:52:55.771Z,0.90
2018-02-12T12:55:24.053Z,0.80
2018-02-12T12:57:51.562Z,0.80
2018-02-12T13:00:19.067Z,0.50
2018-02-12T13:02:46.566Z,0.60
2018-02-12T13:05:14.065Z,0.60
2018-02-12T13:07:41.531Z,0.60
2018-02-12T13:10:09.779Z,0.70
2018-02-12T13:12:37.273Z,0.70
2018-02-12T13:15:05.557Z,0.40
2018-02-12T13:17:33.014Z,0.40
2018-02-12T13:20:00.484Z,0.10
2018-02-12T13:22:27.982Z,-0.20
2018-02-12T13:24:55.454Z,-0.60
2018-02-12T13:27:22.954Z,-0.60
2018-02-12T13:29:50.450Z,-0.50
2018-02-12T13:32:17.958Z,-0.30
2018-02-12T13:34:46.206Z,-0.10
2018-02-12T13:37:13.708Z,-0.10
2018-02-12T13:39:41.177Z,0.00
2018-02-12T13:42:08.669Z,0.10
2018-02-12T13:44:36.192Z,0.10
2018-02-12T13:47:03.756Z,0.20
2018-02-12T13:49:31.202Z,0.40
2018-02-12T13:51:58.709Z,0.40
2018-02-12T13:54:26.175Z,0.50
2018-02-12T13:56:53.666Z,0.60
2018-02-12T13:59:21.659Z,0.60
2018-02-12T14:01:49.164Z,0.60
2018-02-12T14:04:16.621Z,0.70
2018-02-12T14:06:44.122Z,0.70
2018-02-12T14:09:11.602Z,0.80
2018-02-12T14:11:39.116Z,0.80
2018-02-12T14:14:06.555Z,0.80
2018-02-12T14:16:34.047Z,0.80
2018-02-12T14:19:02.280Z,0.80
2018-02-12T14:21:29.819Z,0.80
2018-02-12T14:23:57.301Z,0.40
2018-02-12T14:26:24.778Z,0.30
2018-02-12T14:28:52.265Z,0.20
2018-02-12T14:31:19.751Z,0.20
2018-02-12T14:33:47.230Z,0.10
2018-02-12T14:36:14.720Z,-0.40
2018-02-12T14:38:43.217Z,-1.00
2018-02-12T14:41:10.723Z,-1.10
2018-02-12T14:43:39.006Z,-1.20
2018-02-12T14:46:06.526Z,-1.30
2018-02-12T14:48:33.998Z,-1.20
2018-02-12T14:51:01.458Z,-1.20
2018-02-12T14:53:28.940Z,-1.20
2018-02-12T14:55:56.414Z,-1.00
2018-02-12T14:58:23.906Z,-0.70
2018-02-12T15:00:51.431Z,-0.50
2018-02-12T15:03:19.723Z,-0.40
2018-02-12T15:05:47.202Z,-0.40
2018-02-12T15:08:14.683Z,-0.40
2018-02-12T15:10:42.193Z,-0.40
2018-02-12T15:13:09.649Z,-0.50
2018-02-12T15:15:37.162Z,-0.70
2018-02-12T15:18:05.438Z,-0.70
2018-02-12T15:20:32.974Z,-0.80
2018-02-12T15:23:00.481Z,-0.80
2018-02-12T15:25:27.945Z,-0.90
2018-02-12T15:27:55.452Z,-1.00
2018-02-12T15:30:22.909Z,-1.00
2018-02-12T15:32:50.422Z,-1.00
2018-02-12T15:35:17.940Z,-1.00
2018-02-12T15:37:45.499Z,-1.00
2018-02-12T15:40:12.970Z,-1.10
2018-02-12T15:42:41.170Z,-1.00
2018-02-12T15:45:08.674Z,-1.10
2018-02-12T15:47:36.702Z,-1.10
2018-02-12T15:50:04.219Z,-1.10
2018-02-12T15:52:31.694Z,-1.20
2018-02-12T15:54:59.218Z,-1.20
2018-02-12T15:57:27.450Z,-1.20
2018-02-12T15:59:55.010Z,-1.30
2018-02-12T16:02:22.483Z,-1.30
2018-02-12T16:04:49.981Z,-1.30
2018-02-12T16:07:17.471Z,-1.30
2018-02-12T16:09:44.979Z,-1.20
2018-02-12T16:12:13.237Z,-1.20
2018-02-12T16:14:40.742Z,-1.20
2018-02-12T16:17:08.242Z,-1.20
2018-02-12T16:19:35.718Z,-1.30
2018-02-12T16:22:03.231Z,-1.30
2018-02-12T16:24:30.713Z,-1.30
2018-02-12T16:26:58.213Z,-1.40
2018-02-12T16:29:26.447Z,-1.40
2018-02-12T16:31:53.956Z,-1.40
2018-02-12T16:34:21.444Z,-1.40
2018-02-12T16:36:48.963Z,-1.40
2018-02-12T16:39:17.213Z,-1.40
2018-02-12T16:41:44.711Z,-1.40
2018-02-12T16:44:12.218Z,-1.40
2018-02-12T16:46:39.742Z,-1.60
2018-02-12T16:49:07.270Z,-1.50
2018-02-12T16:51:34.748Z,-1.60
2018-02-12T16:54:02.254Z,-1.70
2018-02-12T16:56:29.730Z,-1.70
2018-02-12T16:58:57.243Z,-1.70
2018-02-12T17:01:24.737Z,-1.70
2018-02-12T17:03:52.231Z,-1.70
2018-02-12T17:06:20.478Z,-1.60
2018-02-12T17:08:47.953Z,-1.60
2018-02-12T17:11:15.492Z,-1.60
2018-02-12T17:13:42.977Z,-1.60
2018-02-12T17:16:10.484Z,-1.60
2018-02-12T17:18:38.001Z,-1.50
2018-02-12T17:21:06.260Z,-1.40
2018-02-12T17:23:33.782Z,-1.50
2018-02-12T17:26:01.239Z,-1.40
2018-02-12T17:28:28.793Z,-1.80
2018-02-12T17:30:56.270Z,-1.90
2018-02-12T17:33:23.826Z,-1.70
2018-02-12T17:35:51.319Z,-1.70
2018-02-12T17:38:20.314Z,-1.80
2018-02-12T17:40:48.600Z,-2.10
2018-02-12T17:43:16.835Z,-2.30
2018-02-12T17:45:44.349Z,-2.30
2018-02-12T17:48:11.824Z,-2.50
2018-02-12T17:50:39.290Z,-2.60
2018-02-12T17:53:06.774Z,-2.70
2018-02-12T17:55:34.274Z,-2.80
2018-02-12T17:58:02.545Z,-2.90
2018-02-12T18:00:30.780Z,-2.90
2018-02-12T18:02:58.302Z,-2.90
2018-02-12T18:05:25.840Z,-2.90
2018-02-12T18:07:54.092Z,-3.00
2018-02-12T18:10:21.613Z,-3.00
2018-02-12T18:12:49.118Z,-2.90
2018-02-12T18:15:16.610Z,-2.90
2018-02-12T18:17:44.889Z,-3.00
2018-02-12T18:20:13.157Z,-3.00
2018-02-12T18:22:41.404Z,-3.00
2018-02-12T18:25:08.962Z,-3.00
2018-02-12T18:27:36.473Z,-3.00
2018-02-12T18:30:03.993Z,-3.00
2018-02-12T18:32:31.463Z,-3.10
2018-02-12T18:34:59.730Z,-3.00
2018-02-12T18:37:27.229Z,-3.00
2018-02-12T18:39:54.752Z,-3.10
2018-02-12T18:42:22.217Z,-2.90
2018-02-12T18:44:50.490Z,-2.80
2018-02-12T18:47:18.803Z,-2.80
2018-02-12T18:49:46.287Z,-2.80
2018-02-12T18:52:13.786Z,-3.10
2018-02-12T18:54:42.022Z,-3.00
2018-02-12T18:57:09.529Z,-3.10
2018-02-12T18:59:37.052Z,-3.20
2018-02-12T19:02:04.533Z,-3.50
2018-02-12T19:04:32.055Z,-3.50
2018-02-12T19:06:59.519Z,-3.50
2018-02-12T19:09:27.061Z,-3.20
2018-02-12T19:11:54.545Z,-3.00
2018-02-12T19:14:22.036Z,-2.80
2018-02-12T19:16:50.287Z,-2.70
2018-02-12T19:19:17.781Z,-2.70
2018-02-12T19:21:46.055Z,-2.70
2018-02-12T19:24:14.286Z,-2.80
2018-02-12T19:26:41.818Z,-2.80
2018-02-12T19:29:09.302Z,-2.80
2018-02-12T19:31:36.817Z,-2.80
2018-02-12T19:34:04.290Z,-2.80
2018-02-12T19:36:31.758Z,-2.80
2018-02-12T19:38:59.281Z,-2.80
2018-02-12T19:41:27.504Z,-3.50
2018-02-12T19:43:55.575Z,-3.50
2018-02-12T19:46:23.598Z,-3.40
2018-02-12T19:48:51.855Z,-3.20
2018-02-12T19:51:19.390Z,-3.20
2018-02-12T19:53:46.898Z,-3.00
2018-02-12T19:56:15.191Z,-2.80
2018-02-12T19:58:42.686Z,-2.80
2018-02-12T20:01:10.218Z,-2.90
2018-02-12T20:03:37.717Z,-2.90
2018-02-12T20:06:05.291Z,-2.90
2018-02-12T20:08:32.853Z,-2.90
2018-02-12T20:11:00.359Z,-2.90
2018-02-12T20:13:27.862Z,-2.90
2018-02-12T20:15:55.390Z,-2.90
2018-02-12T20:18:22.897Z,-2.80
2018-02-12T20:20:50.368Z,-3.00
2018-02-12T20:23:18.691Z,-3.60
2018-02-12T20:25:46.164Z,-3.60
2018-02-12T20:28:13.673Z,-3.70
2018-02-12T20:30:41.936Z,-3.60
2018-02-12T20:33:10.230Z,-3.70
2018-02-12T20:35:37.743Z,-3.70
2018-02-12T20:38:05.212Z,-3.70
2018-02-12T20:40:32.711Z,-3.60
2018-02-12T20:43:00.234Z,-3.40
2018-02-12T20:45:27.706Z,-3.20
2018-02-12T20:47:56.018Z,-3.10
2018-02-12T20:50:23.503Z,-3.10
2018-02-12T20:52:51.052Z,-3.00
2018-02-12T20:55:18.519Z,-3.00
2018-02-12T20:57:45.999Z,-2.90
2018-02-12T21:00:13.508Z,-2.80
2018-02-12T21:02:40.991Z,-2.70
2018-02-12T21:05:08.510Z,-2.70
2018-02-12T21:07:36.771Z,-2.70
2018-02-12T21:10:05.062Z,-2.90
2018-02-12T21:12:33.300Z,-3.00
2018-02-12T21:15:00.803Z,-3.10
2018-02-12T21:17:28.289Z,-3.00
2018-02-12T21:19:55.799Z,-3.10
2018-02-12T21:22:24.042Z,-3.20
2018-02-12T21:24:51.540Z,-3.20
2018-02-12T21:27:19.059Z,-3.30
2018-02-12T21:29:46.575Z,-3.30
2018-02-12T21:32:14.846Z,-3.30
2018-02-12T21:34:43.094Z,-3.50
2018-02-12T21:37:11.396Z,-3.60
2018-02-12T21:39:39.648Z,-3.50
2018-02-12T21:42:07.158Z,-3.50
2018-02-12T21:44:34.647Z,-3.50
2018-02-12T21:47:02.182Z,-3.40
2018-02-12T21:49:29.672Z,-3.40
2018-02-12T21:51:57.140Z,-3.30
2018-02-12T21:54:24.645Z,-3.50
2018-02-12T21:56:52.105Z,-3.50
2018-02-12T21:59:19.614Z,-3.40
2018-02-12T22:01:47.091Z,-3.40
2018-02-12T22:04:15.375Z,-3.40
2018-02-12T22:06:43.615Z,-3.40
2018-02-12T22:09:11.279Z,-3.40
2018-02-12T22:11:38.750Z,-3.70
2018-02-12T22:14:06.205Z,-3.70
2018-02-12T22:16:33.714Z,-3.60
2018-02-12T22:19:01.198Z,-3.90
2018-02-12T22:21:28.691Z,-4.00
2018-02-12T22:23:56.939Z,-4.00
2018-02-12T22:26:24.472Z,-4.00
2018-02-12T22:28:51.945Z,-4.00
2018-02-12T22:31:19.453Z,-3.90
2018-02-12T22:33:47.693Z,-3.70
2018-02-12T22:36:15.166Z,-3.70
2018-02-12T22:38:42.678Z,-3.70
2018-02-12T22:41:10.158Z,-3.60
2018-02-12T22:43:37.693Z,-3.70
2018-02-12T22:46:05.180Z,-4.10
2018-02-12T22:48:32.634Z,-4.00
2018-02-12T22:51:00.123Z,-4.30
2018-02-12T22:53:27.640Z,-4.50
2018-02-12T22:55:55.120Z,-4.50
2018-02-12T22:58:22.607Z,-4.30
2018-02-12T23:00:50.097Z,-4.30
2018-02-12T23:03:17.582Z,-4.20
2018-02-12T23:05:45.069Z,-4.10
2018-02-12T23:08:12.535Z,-4.60
2018-02-12T23:10:40.043Z,-5.00
2018-02-12T23:13:07.538Z,-5.10
2018-02-12T23:15:35.050Z,-5.10
2018-02-12T23:18:02.510Z,-5.10
2018-02-12T23:20:30.052Z,-5.20
2018-02-12T23:22:58.306Z,-5.00
2018-02-12T23:25:25.814Z,-5.00
2018-02-12T23:27:53.318Z,-5.10
2018-02-12T23:30:20.848Z,-4.70
2018-02-12T23:32:48.346Z,-4.60
2018-02-12T23:35:15.810Z,-4.50
2018-02-12T23:37:44.081Z,-4.40
2018-02-12T23:40:11.548Z,-4.40
2018-02-12T23:42:39.810Z,-4.30
2018-02-12T23:45:07.293Z,-4.30
2018-02-12T23:47:34.782Z,-4.30
2018-02-12T23:50:02.253Z,-4.30
2018-02-12T23:52:29.735Z,-4.30
2018-02-12T23:54:57.250Z,-4.30
2018-02-12T23:57:24.726Z,-4.20
2018-02-12T23:59:52.229Z,-4.30
